createdAt,value
2019-04-28T00:00:54.367Z,88.262939
2019-04-28T00:01:54.340Z,88.15918
2019-04-28T00:03:05.361Z,87.640381
2019-04-28T00:04:04.551Z,87.121582
2019-04-28T00:05:03.727Z,86.291504
2019-04-28T00:05:15.575Z,86.187744
2019-04-28T00:06:14.786Z,86.187744
2019-04-28T00:07:13.980Z,86.706543
2019-04-28T00:08:25.055Z,86.914062
2019-04-28T00:09:24.234Z,86.914062
2019-04-28T00:10:35.255Z,86.877441
2019-04-28T00:11:34.487Z,86.669922
2019-04-28T00:12:33.678Z,86.773682
2019-04-28T00:12:45.520Z,86.773682
2019-04-28T00:13:44.717Z,87.078857
2019-04-28T00:14:43.921Z,87.286377
2019-04-28T00:15:54.940Z,87.286377
2019-04-28T00:16:54.151Z,87.390137
2019-04-28T00:18:05.178Z,87.493896
2019-04-28T00:19:04.420Z,87.597656
2019-04-28T00:20:03.646Z,88.116455
2019-04-28T00:20:15.489Z,88.220215
2019-04-28T00:21:14.683Z,88.800049
2019-04-28T00:22:13.880Z,89.007568
2019-04-28T00:22:25.719Z,89.007568
2019-04-28T00:23:24.913Z,89.318848
2019-04-28T00:24:24.154Z,89.318848
2019-04-28T00:25:35.183Z,88.964844
2019-04-28T00:26:34.370Z,88.861084
2019-04-28T00:27:45.406Z,88.653564
2019-04-28T00:28:44.617Z,88.342285
2019-04-28T00:29:46.124Z,88.140869
2019-04-28T00:29:55.638Z,88.140869
2019-04-28T00:30:54.827Z,87.93335
2019-04-28T00:31:54.023Z,87.82959
2019-04-28T00:33:05.028Z,87.82959
2019-04-28T00:34:04.270Z,87.62207
2019-04-28T00:35:15.287Z,87.62207
2019-04-28T00:36:14.506Z,87.62207
2019-04-28T00:37:13.694Z,87.72583
2019-04-28T00:37:25.529Z,87.82959
2019-04-28T00:38:24.702Z,87.82959
2019-04-28T00:39:23.890Z,87.72583
2019-04-28T00:39:35.747Z,87.72583
2019-04-28T00:40:34.939Z,87.414551
2019-04-28T00:41:34.150Z,87.207031
2019-04-28T00:42:45.190Z,86.938477
2019-04-28T00:43:44.354Z,87.145996
2019-04-28T00:44:55.389Z,87.866211
2019-04-28T00:45:54.567Z,88.17749
2019-04-28T00:46:53.778Z,88.38501
2019-04-28T00:47:05.623Z,88.38501
2019-04-28T00:48:04.869Z,88.48877
2019-04-28T00:49:05.066Z,88.07373
2019-04-28T00:50:04.261Z,87.664795
2019-04-28T00:51:15.320Z,87.353516
2019-04-28T00:52:14.541Z,86.669922
2019-04-28T00:53:13.755Z,85.839844
2019-04-28T00:53:25.592Z,85.736084
2019-04-28T00:54:24.787Z,85.839844
2019-04-28T00:55:23.999Z,85.943604
2019-04-28T00:56:35.153Z,87.017822
2019-04-28T00:57:34.341Z,87.8479
2019-04-28T00:58:45.396Z,87.8479
2019-04-28T00:59:53.809Z,86.602783
2019-04-28T01:00:43.764Z,85.986328
2019-04-28T01:00:55.633Z,85.986328
2019-04-28T01:01:54.827Z,85.71167
2019-04-28T01:02:54.054Z,85.60791
2019-04-28T01:04:05.089Z,86.022949
2019-04-28T01:05:04.294Z,86.230469
2019-04-28T01:06:15.312Z,87.060547
2019-04-28T01:07:14.501Z,88.299561
2019-04-28T01:08:13.744Z,89.025879
2019-04-28T01:08:25.575Z,89.233398
2019-04-28T01:09:24.769Z,89.959717
2019-04-28T01:10:23.995Z,90.307617
2019-04-28T01:11:35.025Z,90.722656
2019-04-28T01:12:34.212Z,90.930176
2019-04-28T01:13:45.366Z,90.930176
2019-04-28T01:14:44.578Z,90.930176
2019-04-28T01:15:43.761Z,90.930176
2019-04-28T01:15:55.599Z,90.930176
2019-04-28T01:16:54.789Z,91.033936
2019-04-28T01:17:53.995Z,91.241455
2019-04-28T01:19:05.053Z,91.345215
2019-04-28T01:20:04.281Z,91.40625
2019-04-28T01:21:15.330Z,91.30249
2019-04-28T01:22:14.526Z,90.887451
2019-04-28T01:23:13.706Z,90.533447
2019-04-28T01:23:25.543Z,90.533447
2019-04-28T01:24:24.761Z,90.332031
2019-04-28T01:25:23.971Z,90.228271
2019-04-28T01:26:35.032Z,90.637207
2019-04-28T01:27:34.219Z,90.905762
2019-04-28T01:28:45.258Z,90.802002
2019-04-28T01:29:44.457Z,90.393066
2019-04-28T01:30:44.698Z,89.398193
2019-04-28T01:31:43.888Z,88.983154
2019-04-28T01:32:54.923Z,89.086914
2019-04-28T01:33:54.115Z,89.190674
2019-04-28T01:35:05.162Z,89.501953
2019-04-28T01:36:04.347Z,90.020752
2019-04-28T01:37:15.390Z,90.533447
2019-04-28T01:38:03.747Z,90.740967
2019-04-28T01:38:15.577Z,90.740967
2019-04-28T01:39:03.959Z,90.533447
2019-04-28T01:40:15.128Z,90.020752
2019-04-28T01:41:14.318Z,90.124512
2019-04-28T01:42:25.374Z,90.020752
2019-04-28T01:43:24.573Z,89.605713
2019-04-28T01:44:23.753Z,89.086914
2019-04-28T01:44:35.635Z,89.086914
2019-04-28T01:45:34.813Z,89.086914
2019-04-28T01:46:34.010Z,89.294434
2019-04-28T01:47:45.052Z,89.398193
2019-04-28T01:48:44.245Z,89.605713
2019-04-28T01:49:44.521Z,89.709473
2019-04-28T01:50:43.709Z,89.709473
2019-04-28T01:50:55.554Z,89.709473
2019-04-28T01:51:54.752Z,89.709473
2019-04-28T01:52:53.937Z,90.020752
2019-04-28T01:54:04.962Z,90.435791
2019-04-28T01:55:04.184Z,90.332031
2019-04-28T01:56:04.384Z,89.916992
2019-04-28T01:57:15.419Z,89.440918
2019-04-28T01:58:14.616Z,89.440918
2019-04-28T01:59:13.800Z,89.337158
2019-04-28T01:59:25.636Z,89.337158
2019-04-28T02:00:25.531Z,89.129639
2019-04-28T02:01:24.157Z,88.61084
2019-04-28T02:02:35.173Z,88.195801
2019-04-28T02:03:34.366Z,87.780762
2019-04-28T02:04:45.406Z,88.092041
2019-04-28T02:05:44.626Z,88.61084
2019-04-28T02:06:43.832Z,88.299561
2019-04-28T02:06:55.660Z,87.988281
2019-04-28T02:07:54.824Z,87.268066
2019-04-28T02:08:54.041Z,87.268066
2019-04-28T02:11:05.257Z,87.677002
2019-04-28T02:12:04.564Z,88.818359
2019-04-28T02:13:03.752Z,87.884521
2019-04-28T02:13:15.595Z,87.512207
2019-04-28T02:14:14.777Z,86.993408
2019-04-28T02:15:13.977Z,88.134766
2019-04-28T02:16:25.012Z,89.685059
2019-04-28T02:17:25.231Z,90.411377
2019-04-28T02:18:25.430Z,91.033936
2019-04-28T02:19:24.616Z,91.864014
2019-04-28T02:20:23.830Z,92.175293
2019-04-28T02:20:35.664Z,92.175293
2019-04-28T02:21:34.900Z,91.07666
2019-04-28T02:22:34.129Z,89.727783
2019-04-28T02:23:45.145Z,89.208984
2019-04-28T02:24:44.348Z,89.001465
2019-04-28T02:25:55.373Z,89.105225
2019-04-28T02:26:54.603Z,89.312744
2019-04-28T02:27:53.816Z,89.581299
2019-04-28T02:28:05.661Z,89.581299
2019-04-28T02:29:04.864Z,89.685059
2019-04-28T02:30:04.063Z,89.483643
2019-04-28T02:31:04.236Z,89.276123
2019-04-28T02:32:15.410Z,88.964844
2019-04-28T02:33:14.588Z,88.446045
2019-04-28T02:34:13.778Z,88.031006
2019-04-28T02:34:25.611Z,88.031006
2019-04-28T02:35:24.800Z,88.446045
2019-04-28T02:36:23.992Z,88.238525
2019-04-28T02:37:35.034Z,88.446045
2019-04-28T02:38:35.206Z,88.549805
2019-04-28T02:39:34.387Z,88.757324
2019-04-28T02:40:45.430Z,88.861084
2019-04-28T02:41:44.625Z,89.788818
2019-04-28T02:42:43.806Z,91.094971
2019-04-28T02:42:55.643Z,91.19873
2019-04-28T02:43:54.835Z,91.51001
2019-04-28T02:44:54.038Z,91.61377
2019-04-28T02:46:05.054Z,91.717529
2019-04-28T02:47:04.282Z,91.925049
2019-04-28T02:48:15.299Z,92.132568
2019-04-28T02:49:14.492Z,92.236328
2019-04-28T02:50:13.687Z,92.193604
2019-04-28T02:50:25.515Z,92.297363
2019-04-28T02:51:24.710Z,92.297363
2019-04-28T02:52:23.951Z,92.193604
2019-04-28T02:53:34.982Z,91.778564
2019-04-28T02:54:34.178Z,91.467285
2019-04-28T02:55:45.200Z,91.052246
2019-04-28T02:56:44.412Z,91.052246
2019-04-28T02:57:43.651Z,90.844727
2019-04-28T02:57:55.492Z,90.844727
2019-04-28T02:58:54.683Z,90.435791
2019-04-28T02:59:53.865Z,89.501953
2019-04-28T03:00:05.710Z,89.294434
2019-04-28T03:01:12.717Z,88.360596
2019-04-28T03:02:05.055Z,87.469482
2019-04-28T03:03:04.294Z,86.437988
2019-04-28T03:04:15.355Z,85.60791
2019-04-28T03:05:14.545Z,85.339355
2019-04-28T03:06:13.745Z,85.546875
2019-04-28T03:06:25.587Z,85.754395
2019-04-28T03:07:24.829Z,86.889648
2019-04-28T03:08:24.019Z,87.762451
2019-04-28T03:09:35.028Z,88.897705
2019-04-28T03:10:34.225Z,89.727783
2019-04-28T03:11:34.413Z,90.246582
2019-04-28T03:12:33.661Z,90.557861
2019-04-28T03:12:45.508Z,90.661621
2019-04-28T03:13:44.719Z,90.496826
2019-04-28T03:14:44.288Z,90.496826
2019-04-28T03:15:54.952Z,90.808105
2019-04-28T03:16:54.142Z,90.95459
2019-04-28T03:18:05.191Z,90.95459
2019-04-28T03:19:05.415Z,90.85083
2019-04-28T03:20:04.612Z,90.704346
2019-04-28T03:21:04.557Z,90.185547
2019-04-28T03:21:15.631Z,90.081787
2019-04-28T03:22:14.825Z,89.666748
2019-04-28T03:23:14.016Z,89.874268
2019-04-28T03:24:25.185Z,89.978027
2019-04-28T03:25:24.372Z,90.081787
2019-04-28T03:26:35.390Z,90.454102
2019-04-28T03:27:34.592Z,90.869141
2019-04-28T03:28:33.967Z,90.869141
2019-04-28T03:28:45.675Z,90.9729
2019-04-28T03:29:44.877Z,91.18042
2019-04-28T03:30:44.320Z,91.07666
2019-04-28T03:32:09.268Z,90.454102
2019-04-28T03:32:52.722Z,89.312744
2019-04-28T03:33:48.834Z,87.902832
2019-04-28T03:34:44.551Z,87.072754
2019-04-28T03:34:55.629Z,86.968994
2019-04-28T03:35:54.890Z,86.14502
2019-04-28T03:36:54.065Z,85.83374
2019-04-28T03:38:05.100Z,86.761475
2019-04-28T03:39:04.279Z,87.384033
2019-04-28T03:40:15.307Z,87.219238
2019-04-28T03:41:14.532Z,87.011719
2019-04-28T03:42:13.726Z,86.846924
2019-04-28T03:42:25.552Z,86.846924
2019-04-28T03:43:24.723Z,87.365723
2019-04-28T03:44:24.049Z,87.988281
2019-04-28T03:45:35.098Z,87.921143
2019-04-28T03:46:34.308Z,87.194824
2019-04-28T03:47:45.351Z,86.407471
2019-04-28T03:48:44.525Z,86.547852
2019-04-28T03:49:44.735Z,87.481689
2019-04-28T03:50:43.951Z,88.73291
2019-04-28T03:51:54.988Z,89.874268
2019-04-28T03:52:54.172Z,90.704346
2019-04-28T03:54:05.255Z,91.595459
2019-04-28T03:55:04.471Z,92.529297
2019-04-28T03:56:03.641Z,93.115234
2019-04-28T03:56:15.473Z,93.218994
2019-04-28T03:57:14.675Z,93.530273
2019-04-28T03:58:13.852Z,93.695068
2019-04-28T03:58:25.695Z,93.798828
2019-04-28T03:59:24.911Z,93.695068
2019-04-28T04:00:24.088Z,93.64624
2019-04-28T04:01:51.870Z,93.438721
2019-04-28T04:02:35.333Z,92.822266
2019-04-28T04:03:23.685Z,92.242432
2019-04-28T04:03:35.518Z,92.034912
2019-04-28T04:04:34.711Z,91.204834
2019-04-28T04:05:34.075Z,90.270996
2019-04-28T04:07:45.306Z,89.025879
2019-04-28T04:08:44.506Z,87.402344
2019-04-28T04:09:43.714Z,86.193848
2019-04-28T04:09:55.586Z,86.029053
2019-04-28T04:10:54.772Z,85.614014
2019-04-28T04:11:53.971Z,86.065674
2019-04-28T04:13:05.151Z,86.694336
2019-04-28T04:14:04.356Z,87.420654
2019-04-28T04:15:15.402Z,88.146973
2019-04-28T04:16:14.586Z,88.916016
2019-04-28T04:17:13.925Z,90.161133
2019-04-28T04:18:24.950Z,91.308594
2019-04-28T04:19:24.139Z,92.034912
2019-04-28T04:20:35.185Z,93.286133
2019-04-28T04:21:34.375Z,94.055176
2019-04-28T04:22:45.432Z,94.262695
2019-04-28T04:23:44.631Z,94.42749
2019-04-28T04:24:43.829Z,94.73877
2019-04-28T04:24:55.669Z,94.842529
2019-04-28T04:25:54.861Z,95.007324
2019-04-28T04:26:54.053Z,94.903564
2019-04-28T04:28:05.154Z,95.007324
2019-04-28T04:29:04.340Z,94.799805
2019-04-28T04:30:15.415Z,94.281006
2019-04-28T04:31:14.606Z,93.969727
2019-04-28T04:32:23.017Z,93.969727
2019-04-28T04:33:14.125Z,94.384766
2019-04-28T04:34:25.162Z,94.86084
2019-04-28T04:35:24.377Z,95.379639
2019-04-28T04:36:24.574Z,95.587158
2019-04-28T04:37:23.768Z,95.544434
2019-04-28T04:37:35.608Z,95.544434
2019-04-28T04:38:34.882Z,95.648193
2019-04-28T04:39:35.082Z,95.501709
2019-04-28T04:40:34.275Z,95.294189
2019-04-28T04:41:45.315Z,94.87915
2019-04-28T04:42:44.538Z,94.525146
2019-04-28T04:43:43.811Z,93.902588
2019-04-28T04:43:55.655Z,93.798828
2019-04-28T04:44:54.860Z,93.07251
2019-04-28T04:45:54.061Z,92.138672
2019-04-28T04:47:05.094Z,91.412354
2019-04-28T04:48:04.303Z,91.308594
2019-04-28T04:49:15.361Z,91.308594
2019-04-28T04:50:14.880Z,91.241455
2019-04-28T04:51:14.430Z,90.930176
2019-04-28T04:52:13.997Z,91.448975
2019-04-28T04:53:14.356Z,91.699219
2019-04-28T04:54:14.058Z,92.156982
2019-04-28T04:55:14.570Z,92.675781
2019-04-28T04:56:14.142Z,93.304443
2019-04-28T04:57:25.460Z,94.134521
2019-04-28T04:58:24.790Z,94.403076
2019-04-28T04:59:24.223Z,94.610596
2019-04-28T05:00:24.617Z,94.610596
2019-04-28T05:01:24.111Z,94.360352
2019-04-28T05:02:35.424Z,94.152832
2019-04-28T05:03:23.935Z,94.049072
2019-04-28T05:04:35.263Z,93.530273
2019-04-28T05:05:34.642Z,93.07251
2019-04-28T05:06:34.357Z,92.590332
2019-04-28T05:07:33.800Z,92.175293
2019-04-28T05:07:45.639Z,91.967773
2019-04-28T05:08:45.023Z,91.595459
2019-04-28T05:09:44.541Z,92.010498
2019-04-28T05:10:43.943Z,92.675781
2019-04-28T05:11:44.464Z,93.054199
2019-04-28T05:12:43.996Z,93.572998
2019-04-28T05:13:55.249Z,93.572998
2019-04-28T05:14:54.912Z,93.676758
2019-04-28T05:15:54.299Z,93.676758
2019-04-28T05:16:53.812Z,93.634033
2019-04-28T05:17:05.715Z,93.634033
2019-04-28T05:18:05.177Z,93.530273
2019-04-28T05:19:04.491Z,93.634033
2019-04-28T05:20:03.992Z,94.006348
2019-04-28T05:21:15.250Z,94.213867
2019-04-28T05:22:14.702Z,94.268799
2019-04-28T05:23:14.217Z,94.372559
2019-04-28T05:24:15.612Z,94.268799
2019-04-28T05:24:25.589Z,94.268799
2019-04-28T05:25:29.174Z,94.372559
2019-04-28T05:26:24.304Z,94.433594
2019-04-28T05:27:25.677Z,94.329834
2019-04-28T05:28:24.349Z,94.122314
2019-04-28T05:29:26.676Z,93.603516
2019-04-28T05:30:25.034Z,93.292236
2019-04-28T05:31:24.493Z,93.041992
2019-04-28T05:32:23.882Z,92.840576
2019-04-28T05:33:30.376Z,92.321777
2019-04-28T05:34:24.188Z,92.010498
2019-04-28T05:34:39.691Z,91.906738
2019-04-28T05:35:25.208Z,91.595459
2019-04-28T05:36:23.688Z,91.07666
2019-04-28T05:36:40.863Z,90.9729
2019-04-28T05:37:34.959Z,90.765381
2019-04-28T05:38:34.428Z,90.557861
2019-04-28T05:39:34.030Z,90.661621
2019-04-28T05:40:33.650Z,90.454102
2019-04-28T05:40:45.488Z,90.350342
2019-04-28T05:41:44.869Z,89.831543
2019-04-28T05:42:44.278Z,89.770508
2019-04-28T05:43:43.717Z,89.874268
2019-04-28T05:43:55.632Z,89.874268
2019-04-28T05:44:55.083Z,89.874268
2019-04-28T05:45:54.576Z,89.666748
2019-04-28T05:46:54.189Z,89.666748
2019-04-28T05:48:05.413Z,90.039062
2019-04-28T05:49:04.837Z,90.142822
2019-04-28T05:50:04.600Z,90.081787
2019-04-28T05:51:04.000Z,90.185547
2019-04-28T05:52:15.272Z,90.393066
2019-04-28T05:53:14.722Z,90.808105
2019-04-28T05:54:14.089Z,91.387939
2019-04-28T05:55:25.399Z,91.699219
2019-04-28T05:56:24.874Z,91.802979
2019-04-28T05:57:24.161Z,91.802979
2019-04-28T05:58:35.502Z,91.906738
2019-04-28T05:59:35.012Z,92.010498
2019-04-28T06:00:35.482Z,92.175293
2019-04-28T06:01:34.856Z,92.175293
2019-04-28T06:02:34.344Z,92.071533
2019-04-28T06:03:34.682Z,91.967773
2019-04-28T06:04:34.227Z,92.071533
2019-04-28T06:05:33.696Z,91.967773
2019-04-28T06:05:45.592Z,91.864014
2019-04-28T06:06:34.164Z,91.760254
2019-04-28T06:07:33.648Z,91.760254
2019-04-28T06:07:45.556Z,91.760254
2019-04-28T06:08:44.958Z,91.552734
2019-04-28T06:09:44.371Z,91.552734
2019-04-28T06:10:43.890Z,91.51001
2019-04-28T06:11:55.295Z,91.51001
2019-04-28T06:12:54.732Z,91.51001
2019-04-28T06:13:54.329Z,91.821289
2019-04-28T06:14:53.786Z,91.778564
2019-04-28T06:15:05.622Z,91.778564
2019-04-28T06:16:04.937Z,91.778564
2019-04-28T06:17:04.385Z,91.882324
2019-04-28T06:18:03.843Z,92.193604
2019-04-28T06:18:15.683Z,92.193604
2019-04-28T06:19:15.051Z,92.401123
2019-04-28T06:20:14.662Z,92.712402
2019-04-28T06:21:14.088Z,92.810059
2019-04-28T06:22:13.611Z,92.913818
2019-04-28T06:22:25.532Z,92.913818
2019-04-28T06:23:24.947Z,92.810059
2019-04-28T06:24:24.344Z,92.871094
2019-04-28T06:25:23.833Z,92.974854
2019-04-28T06:25:35.678Z,93.078613
2019-04-28T06:26:35.307Z,92.974854
2019-04-28T06:27:34.787Z,92.974854
2019-04-28T06:28:34.191Z,92.974854
2019-04-28T06:29:45.506Z,92.767334
2019-04-28T06:30:44.802Z,92.669678
2019-04-28T06:31:44.272Z,92.523193
2019-04-28T06:32:43.881Z,92.523193
2019-04-28T06:33:44.672Z,92.315674
2019-04-28T06:34:43.801Z,92.211914
2019-04-28T06:34:55.711Z,92.211914
2019-04-28T06:35:55.143Z,92.108154
2019-04-28T06:36:54.646Z,92.06543
2019-04-28T06:37:54.039Z,91.85791
2019-04-28T06:39:05.518Z,91.75415
2019-04-28T06:40:04.844Z,91.75415
2019-04-28T06:41:04.176Z,91.85791
2019-04-28T06:42:15.504Z,91.96167
2019-04-28T06:43:15.049Z,92.06543
2019-04-28T06:44:14.425Z,91.918945
2019-04-28T06:45:13.925Z,92.022705
2019-04-28T06:46:25.234Z,92.022705
2019-04-28T06:47:24.576Z,92.08374
2019-04-28T06:48:24.057Z,91.97998
2019-04-28T06:49:35.361Z,91.97998
2019-04-28T06:50:34.867Z,92.1875
2019-04-28T06:51:34.354Z,92.1875
2019-04-28T06:52:33.961Z,92.08374
2019-04-28T06:53:45.219Z,91.729736
2019-04-28T06:54:44.503Z,91.729736
2019-04-28T06:55:44.038Z,91.729736
2019-04-28T06:56:55.251Z,91.937256
2019-04-28T06:57:54.727Z,92.205811
2019-04-28T06:58:59.030Z,92.205811
2019-04-28T06:59:53.714Z,92.30957
2019-04-28T07:00:05.612Z,92.30957
2019-04-28T07:01:04.950Z,92.205811
2019-04-28T07:02:04.457Z,92.266846
2019-04-28T07:03:04.062Z,92.370605
2019-04-28T07:04:04.016Z,92.370605
2019-04-28T07:05:03.885Z,92.425537
2019-04-28T07:06:03.762Z,92.327881
2019-04-28T07:07:03.667Z,92.327881
2019-04-28T07:07:15.666Z,92.327881
2019-04-28T07:08:15.445Z,92.181396
2019-04-28T07:09:15.201Z,92.077637
2019-04-28T07:10:14.814Z,91.766357
2019-04-28T07:11:14.616Z,91.418457
2019-04-28T07:12:14.526Z,91.314697
2019-04-28T07:13:14.333Z,91.418457
2019-04-28T07:14:14.171Z,91.418457
2019-04-28T07:15:14.931Z,91.516113
2019-04-28T07:16:14.774Z,91.314697
2019-04-28T07:17:14.609Z,91.271973
2019-04-28T07:18:14.427Z,91.375732
2019-04-28T07:19:14.401Z,91.064453
2019-04-28T07:20:14.206Z,91.271973
2019-04-28T07:21:13.696Z,91.168213
2019-04-28T07:21:25.637Z,91.064453
2019-04-28T07:22:25.078Z,90.856934
2019-04-28T07:23:24.286Z,90.753174
2019-04-28T07:24:23.788Z,90.655518
2019-04-28T07:24:35.629Z,90.655518
2019-04-28T07:25:35.283Z,90.612793
2019-04-28T07:26:34.550Z,90.301514
2019-04-28T07:27:33.882Z,90.301514
2019-04-28T07:28:45.285Z,90.301514
2019-04-28T07:29:44.628Z,90.612793
2019-04-28T07:30:44.004Z,90.716553
2019-04-28T07:31:44.270Z,90.777588
2019-04-28T07:32:55.425Z,90.875244
2019-04-28T07:33:54.609Z,90.466309
2019-04-28T07:34:53.815Z,90.258789
2019-04-28T07:35:05.679Z,90.258789
2019-04-28T07:36:04.989Z,90.155029
2019-04-28T07:37:04.239Z,89.440918
2019-04-28T07:38:15.324Z,88.983154
2019-04-28T07:39:14.965Z,88.677979
2019-04-28T07:40:14.370Z,88.269043
2019-04-28T07:41:14.771Z,87.750244
2019-04-28T07:42:14.012Z,87.652588
2019-04-28T07:43:25.075Z,87.750244
2019-04-28T07:44:24.308Z,88.470459
2019-04-28T07:45:35.370Z,89.147949
2019-04-28T07:46:34.726Z,89.355469
2019-04-28T07:46:45.659Z,89.355469
2019-04-28T07:47:44.876Z,89.044189
2019-04-28T07:48:44.077Z,88.635254
2019-04-28T07:49:55.155Z,87.915039
2019-04-28T07:50:54.454Z,87.915039
2019-04-28T07:51:53.729Z,87.609863
2019-04-28T07:52:05.570Z,87.713623
2019-04-28T07:53:04.863Z,88.433838
2019-04-28T07:54:04.904Z,88.531494
2019-04-28T07:55:15.104Z,88.226318
2019-04-28T07:56:14.470Z,88.122559
2019-04-28T07:57:13.670Z,87.713623
2019-04-28T07:57:25.506Z,87.506104
2019-04-28T07:58:24.710Z,87.298584
2019-04-28T07:59:23.898Z,87.609863
2019-04-28T08:00:34.947Z,87.713623
2019-04-28T08:01:34.184Z,86.480713
2019-04-28T08:02:45.214Z,87.097168
2019-04-28T08:03:49.478Z,86.993408
2019-04-28T08:04:43.641Z,87.200928
2019-04-28T08:04:55.478Z,87.298584
2019-04-28T08:05:54.739Z,87.298584
2019-04-28T08:06:53.922Z,86.993408
2019-04-28T08:09:05.207Z,86.645508
2019-04-28T08:10:04.344Z,86.236572
2019-04-28T08:11:15.640Z,85.205078
2019-04-28T08:12:14.828Z,85.821533
2019-04-28T08:13:14.078Z,86.029053
2019-04-28T08:14:25.123Z,86.846924
2019-04-28T08:15:24.307Z,87.365723
2019-04-28T08:16:35.350Z,87.261963
2019-04-28T08:17:34.516Z,87.261963
2019-04-28T08:18:33.717Z,87.322998
2019-04-28T08:18:45.555Z,87.322998
2019-04-28T08:19:44.735Z,87.530518
2019-04-28T08:20:43.913Z,87.115479
2019-04-28T08:21:54.937Z,86.090088
2019-04-28T08:22:54.159Z,86.401367
2019-04-28T08:23:54.420Z,86.810303
2019-04-28T08:24:53.611Z,86.297607
2019-04-28T08:25:05.444Z,86.090088
2019-04-28T08:26:04.622Z,85.681152
2019-04-28T08:27:03.789Z,84.759521
2019-04-28T08:27:15.621Z,84.857178
2019-04-28T08:28:14.770Z,85.375977
2019-04-28T08:29:13.975Z,85.986328
2019-04-28T08:30:24.977Z,85.784912
2019-04-28T08:31:24.151Z,86.401367
2019-04-28T08:32:35.204Z,86.602783
2019-04-28T08:33:34.399Z,86.566162
2019-04-28T08:34:34.719Z,86.663818
2019-04-28T08:35:33.883Z,85.638428
2019-04-28T08:35:45.720Z,85.437012
2019-04-28T08:36:45.290Z,84.924316
2019-04-28T08:37:44.628Z,84.515381
2019-04-28T08:38:44.209Z,84.820557
2019-04-28T08:39:55.258Z,84.002686
2019-04-28T08:40:54.440Z,82.806396
2019-04-28T08:41:53.640Z,84.515381
2019-04-28T08:42:05.476Z,84.411621
2019-04-28T08:43:04.688Z,83.587646
2019-04-28T08:44:03.919Z,83.422852
2019-04-28T08:45:14.972Z,83.587646
2019-04-28T08:46:14.191Z,84.204102
2019-04-28T08:47:25.318Z,83.117676
2019-04-28T08:48:24.566Z,84.039307
2019-04-28T08:49:23.891Z,84.820557
2019-04-28T08:49:35.735Z,84.820557
2019-04-28T08:50:34.957Z,84.100342
2019-04-28T08:51:34.299Z,84.204102
2019-04-28T08:52:45.349Z,84.411621
2019-04-28T08:53:44.591Z,84.716797
2019-04-28T08:54:43.808Z,85.028076
2019-04-28T08:54:55.643Z,85.028076
2019-04-28T08:55:54.935Z,85.028076
2019-04-28T08:56:54.130Z,85.638428
2019-04-28T08:58:05.179Z,85.906982
2019-04-28T08:59:05.000Z,85.498047
2019-04-28T09:00:03.609Z,85.705566
2019-04-28T09:00:15.456Z,85.705566
2019-04-28T09:01:14.693Z,83.551025
2019-04-28T09:02:13.884Z,83.447266
2019-04-28T09:02:25.720Z,83.654785
2019-04-28T09:03:24.914Z,84.063721
2019-04-28T09:04:24.147Z,84.472656
2019-04-28T09:05:35.262Z,84.576416
2019-04-28T09:06:34.480Z,85.089111
2019-04-28T09:07:33.694Z,84.368896
2019-04-28T09:08:33.890Z,84.16748
2019-04-28T09:08:45.714Z,84.124756
2019-04-28T09:09:44.941Z,84.741211
2019-04-28T09:10:44.153Z,83.410645
2019-04-28T09:11:55.207Z,84.436035
2019-04-28T09:12:54.453Z,84.741211
2019-04-28T09:13:53.672Z,84.124756
2019-04-28T09:14:05.518Z,84.0271
2019-04-28T09:15:04.749Z,84.436035
2019-04-28T09:16:03.971Z,84.844971
2019-04-28T09:17:15.085Z,84.228516
2019-04-28T09:18:14.308Z,83.81958
2019-04-28T09:19:25.330Z,83.679199
2019-04-28T09:20:24.522Z,83.984375
2019-04-28T09:21:23.761Z,83.47168
2019-04-28T09:21:35.606Z,83.47168
2019-04-28T09:22:34.856Z,83.166504
2019-04-28T09:23:34.022Z,83.782959
2019-04-28T09:24:45.077Z,83.166504
2019-04-28T09:25:44.294Z,82.757568
2019-04-28T09:26:55.333Z,82.000732
2019-04-28T09:27:54.576Z,82.104492
2019-04-28T09:28:53.763Z,83.435059
2019-04-28T09:29:05.607Z,83.538818
2019-04-28T09:30:04.805Z,83.435059
2019-04-28T09:31:04.027Z,83.026123
2019-04-28T09:32:15.094Z,84.04541
2019-04-28T09:33:14.331Z,84.356689
2019-04-28T09:34:28.268Z,84.25293
2019-04-28T09:35:24.578Z,84.14917
2019-04-28T09:36:24.785Z,84.356689
2019-04-28T09:37:24.115Z,84.558105
2019-04-28T09:38:24.318Z,84.14917
2019-04-28T09:39:35.343Z,84.04541
2019-04-28T09:40:34.539Z,83.392334
2019-04-28T09:41:33.758Z,83.703613
2019-04-28T09:41:45.595Z,83.599854
2019-04-28T09:42:44.830Z,83.496094
2019-04-28T09:43:44.037Z,83.807373
2019-04-28T09:44:55.095Z,83.496094
2019-04-28T09:45:54.303Z,83.087158
2019-04-28T09:47:05.393Z,83.087158
2019-04-28T09:48:04.616Z,83.392334
2019-04-28T09:49:03.820Z,83.087158
2019-04-28T09:49:15.647Z,82.885742
2019-04-28T09:50:14.848Z,82.269287
2019-04-28T09:51:14.093Z,82.067871
2019-04-28T09:52:25.176Z,82.269287
2019-04-28T09:53:25.351Z,82.885742
2019-04-28T09:54:24.521Z,82.574463
2019-04-28T09:55:23.727Z,82.269287
2019-04-28T09:55:35.579Z,82.678223
2019-04-28T09:56:34.833Z,82.885742
2019-04-28T09:57:35.019Z,82.476807
2019-04-28T09:58:35.219Z,81.860352
2019-04-28T09:59:34.454Z,81.964111
2019-04-28T10:00:33.669Z,81.756592
2019-04-28T10:00:45.513Z,81.652832
2019-04-28T10:01:44.895Z,81.555176
2019-04-28T10:02:44.105Z,81.243896
2019-04-28T10:03:55.150Z,82.269287
2019-04-28T10:04:54.350Z,81.591797
2019-04-28T10:06:05.427Z,80.877686
2019-04-28T10:06:53.917Z,80.36499
2019-04-28T10:08:04.979Z,81.243896
2019-04-28T10:09:04.160Z,81.04248
2019-04-28T10:10:15.218Z,81.243896
2019-04-28T10:11:14.417Z,81.451416
2019-04-28T10:12:26.256Z,81.384277
2019-04-28T10:12:27.052Z,81.695557
2019-04-28T10:13:24.695Z,81.488037
2019-04-28T10:14:23.895Z,80.975342
2019-04-28T10:14:35.731Z,80.975342
2019-04-28T10:15:34.961Z,81.384277
2019-04-28T10:16:34.158Z,81.695557
2019-04-28T10:17:45.341Z,81.286621
2019-04-28T10:18:44.559Z,80.975342
2019-04-28T10:19:43.774Z,81.079102
2019-04-28T10:19:55.612Z,80.938721
2019-04-28T10:20:54.821Z,80.633545
2019-04-28T10:21:54.008Z,80.328369
2019-04-28T10:22:53.708Z,81.451416
2019-04-28T10:23:05.606Z,81.652832
2019-04-28T10:24:04.864Z,81.756592
2019-04-28T10:25:05.047Z,81.652832
2019-04-28T10:26:04.257Z,81.652832
2019-04-28T10:27:15.314Z,81.756592
2019-04-28T10:28:14.590Z,81.964111
2019-04-28T10:29:14.024Z,82.269287
2019-04-28T10:30:25.235Z,81.512451
2019-04-28T10:31:24.598Z,81.347656
2019-04-28T10:32:23.883Z,81.451416
2019-04-28T10:33:35.032Z,81.414795
2019-04-28T10:34:34.280Z,80.493164
2019-04-28T10:35:45.341Z,80.79834
2019-04-28T10:36:44.589Z,81.414795
2019-04-28T10:37:45.516Z,80.79834
2019-04-28T10:37:55.664Z,80.737305
2019-04-28T10:38:54.996Z,81.14624
2019-04-28T10:39:54.327Z,81.756592